createdAt,value
2019-05-10T00:02:01.035Z,12.99
2019-05-10T00:06:26.654Z,13.00
2019-05-10T00:10:33.776Z,13.02
2019-05-10T00:14:48.362Z,12.93
2019-05-10T00:18:56.393Z,13.03
2019-05-10T00:23:04.525Z,13.02
2019-05-10T00:27:12.523Z,13.00
2019-05-10T00:31:20.626Z,13.02
2019-05-10T00:35:28.864Z,13.07
2019-05-10T00:39:36.583Z,12.94
2019-05-10T00:43:44.808Z,13.03
2019-05-10T00:47:52.933Z,13.00
2019-05-10T00:52:00.514Z,13.14
2019-05-10T00:56:08.843Z,13.15
2019-05-10T01:00:18.391Z,13.18
2019-05-10T01:04:26.416Z,13.27
2019-05-10T01:08:34.528Z,13.23
2019-05-10T01:12:42.724Z,13.36
2019-05-10T01:16:50.546Z,13.33
2019-05-10T01:20:59.193Z,13.10
2019-05-10T01:25:07.234Z,13.03
2019-05-10T01:29:15.829Z,13.11
2019-05-10T01:33:24.229Z,13.17
2019-05-10T01:37:31.892Z,13.19
2019-05-10T01:41:40.478Z,13.20
2019-05-10T01:45:48.397Z,13.18
2019-05-10T01:49:56.101Z,13.02
2019-05-10T01:54:04.741Z,12.93
2019-05-10T01:58:12.756Z,13.04
2019-05-10T02:02:20.440Z,12.88
2019-05-10T02:06:28.674Z,12.81
2019-05-10T02:10:36.371Z,12.93
2019-05-10T02:14:43.991Z,12.83
2019-05-10T02:18:52.619Z,12.69
2019-05-10T02:23:00.833Z,12.56
2019-05-10T02:27:09.163Z,12.61
2019-05-10T02:31:21.472Z,12.55
2019-05-10T02:35:27.438Z,12.36
2019-05-10T02:39:35.354Z,12.30
2019-05-10T02:43:43.671Z,12.22
2019-05-10T02:47:51.501Z,12.11
2019-05-10T02:51:59.805Z,12.03
2019-05-10T02:56:07.720Z,12.01
2019-05-10T03:00:15.964Z,12.04
2019-05-10T03:04:26.192Z,12.02
2019-05-10T03:08:49.738Z,12.11
2019-05-10T03:13:00.158Z,12.24
2019-05-10T03:17:09.886Z,12.37
2019-05-10T03:21:19.481Z,12.31
2019-05-10T03:25:27.983Z,12.25
2019-05-10T03:29:36.220Z,12.24
2019-05-10T03:33:43.945Z,12.33
2019-05-10T03:37:52.087Z,12.38
2019-05-10T03:41:59.952Z,12.47
2019-05-10T03:46:07.565Z,12.63
2019-05-10T03:50:15.457Z,12.79
2019-05-10T03:54:23.318Z,12.49
2019-05-10T03:58:31.185Z,12.48
2019-05-10T04:02:39.627Z,12.44
2019-05-10T04:06:47.621Z,12.52
2019-05-10T04:10:55.440Z,12.66
2019-05-10T04:15:03.749Z,12.71
2019-05-10T04:19:11.349Z,12.58
2019-05-10T04:23:20.915Z,12.76
2019-05-10T04:27:32.864Z,12.77
2019-05-10T04:31:39.217Z,13.15
2019-05-10T04:35:47.435Z,13.37
2019-05-10T04:39:55.628Z,13.28
2019-05-10T04:44:03.768Z,13.25
2019-05-10T04:48:11.555Z,13.20
2019-05-10T04:52:19.287Z,13.36
2019-05-10T04:56:26.872Z,13.42
2019-05-10T05:00:35.102Z,13.37
2019-05-10T05:04:43.013Z,13.48
2019-05-10T05:08:50.828Z,13.78
2019-05-10T05:12:59.157Z,13.80
2019-05-10T05:17:07.144Z,14.07
2019-05-10T05:21:15.291Z,14.15
2019-05-10T05:25:23.087Z,14.40
2019-05-10T05:29:30.984Z,14.47
2019-05-10T05:33:39.015Z,14.63
2019-05-10T05:37:47.140Z,14.86
2019-05-10T05:41:56.694Z,15.03
2019-05-10T05:46:05.104Z,15.06
2019-05-10T05:50:13.884Z,14.95
2019-05-10T05:54:22.674Z,15.27
2019-05-10T05:58:30.705Z,15.35
2019-05-10T06:02:45.088Z,15.14
2019-05-10T06:06:53.637Z,14.81
2019-05-10T06:10:59.979Z,14.97
2019-05-10T06:15:08.379Z,15.18
2019-05-10T06:19:20.419Z,15.33
2019-05-10T06:23:29.139Z,15.44
2019-05-10T06:27:41.025Z,15.03
2019-05-10T06:31:45.577Z,15.00
2019-05-10T06:35:54.273Z,15.00
2019-05-10T06:40:02.258Z,14.81
2019-05-10T06:44:10.163Z,14.72
2019-05-10T06:48:25.807Z,15.04
2019-05-10T06:52:29.835Z,15.10
2019-05-10T06:56:39.084Z,15.45
2019-05-10T07:00:47.511Z,15.87
2019-05-10T07:04:55.228Z,16.21
2019-05-10T07:09:05.979Z,16.34
2019-05-10T07:13:14.044Z,16.20
2019-05-10T07:17:22.020Z,16.22
2019-05-10T07:21:29.882Z,16.76
2019-05-10T07:25:43.476Z,17.07
2019-05-10T07:29:48.117Z,16.96
2019-05-10T07:33:56.369Z,17.30
2019-05-10T07:38:04.118Z,16.87
2019-05-10T07:42:13.167Z,17.08
2019-05-10T07:46:21.414Z,17.26
2019-05-10T07:50:29.107Z,17.33
2019-05-10T07:54:44.903Z,17.48
2019-05-10T07:58:47.067Z,17.46
2019-05-10T08:03:02.412Z,17.33
2019-05-10T08:07:09.810Z,16.99
2019-05-10T08:11:19.175Z,17.04
2019-05-10T08:15:30.549Z,16.98
2019-05-10T08:19:38.935Z,17.43
2019-05-10T08:23:47.257Z,18.26
2019-05-10T08:27:55.454Z,18.62
2019-05-10T08:32:03.624Z,18.62
2019-05-10T08:36:12.132Z,19.20
2019-05-10T08:40:26.518Z,19.40
2019-05-10T08:44:32.709Z,18.59
2019-05-10T08:48:46.537Z,18.66
2019-05-10T08:52:49.804Z,19.25
2019-05-10T08:57:01.006Z,19.17
2019-05-10T09:01:20.456Z,19.01
2019-05-10T09:05:20.967Z,18.90
2019-05-10T09:09:26.878Z,18.81
2019-05-10T09:13:41.024Z,18.53
2019-05-10T09:17:44.458Z,18.73
2019-05-10T09:21:54.988Z,18.78
2019-05-10T09:26:12.007Z,18.58
2019-05-10T09:30:14.234Z,18.91
2019-05-10T09:34:25.948Z,19.70
2019-05-10T09:38:34.709Z,19.73
2019-05-10T09:42:43.648Z,19.66
2019-05-10T09:46:52.580Z,20.37
2019-05-10T09:51:03.761Z,21.25
2019-05-10T09:55:14.688Z,23.95
2019-05-10T09:59:20.073Z,23.81
2019-05-10T10:03:30.012Z,23.36
2019-05-10T10:07:37.512Z,23.32
2019-05-10T10:11:57.257Z,23.70
2019-05-10T10:15:57.995Z,24.93
2019-05-10T10:20:08.167Z,25.20
2019-05-10T10:24:20.072Z,22.96
2019-05-10T10:28:25.490Z,23.48
2019-05-10T10:32:34.914Z,23.51
2019-05-10T10:36:44.178Z,22.99
2019-05-10T10:40:52.006Z,21.85
2019-05-10T10:44:59.520Z,21.40
2019-05-10T10:49:07.207Z,20.55
2019-05-10T10:53:15.020Z,20.06
2019-05-10T10:57:23.216Z,19.91
2019-05-10T11:01:46.120Z,19.72
2019-05-10T11:05:41.203Z,20.36
2019-05-10T11:09:53.663Z,22.02
2019-05-10T11:14:06.934Z,21.63
2019-05-10T11:18:11.067Z,21.13
2019-05-10T11:22:21.409Z,23.16
2019-05-10T11:26:32.867Z,26.66
2019-05-10T11:30:38.714Z,26.45
2019-05-10T11:34:47.027Z,23.66
2019-05-10T11:38:58.524Z,22.57
2019-05-10T11:43:04.195Z,21.05
2019-05-10T11:47:23.263Z,20.20
2019-05-10T11:51:21.579Z,19.32
2019-05-10T11:55:30.959Z,18.45
2019-05-10T11:59:41.551Z,17.54
2019-05-10T12:03:49.418Z,16.19
2019-05-10T12:07:57.551Z,15.70
2019-05-10T12:12:05.326Z,15.93
2019-05-10T12:16:16.785Z,16.80
2019-05-10T12:20:38.534Z,17.95
2019-05-10T12:26:05.677Z,18.48
2019-05-10T12:28:43.343Z,19.43
2019-05-10T12:32:56.210Z,19.66
2019-05-10T12:37:03.843Z,19.73
2019-05-10T12:41:10.540Z,20.15
2019-05-10T12:45:22.910Z,20.02
2019-05-10T12:49:27.889Z,19.98
2019-05-10T12:53:36.668Z,19.36
2019-05-10T12:57:45.764Z,19.18
2019-05-10T13:01:53.461Z,19.55
2019-05-10T13:06:03.169Z,19.67
2019-05-10T13:10:11.893Z,19.03
2019-05-10T13:14:19.556Z,18.79
2019-05-10T13:18:48.235Z,18.67
2019-05-10T13:22:39.406Z,18.80
2019-05-10T13:26:47.028Z,19.20
2019-05-10T13:30:59.813Z,19.55
2019-05-10T13:35:07.009Z,19.80
2019-05-10T13:39:19.024Z,19.44
2019-05-10T13:43:26.898Z,19.54
2019-05-10T13:47:34.439Z,19.52
2019-05-10T13:51:42.337Z,19.37
2019-05-10T13:55:50.909Z,19.28
2019-05-10T14:00:02.254Z,19.13
2019-05-10T14:04:10.192Z,18.95
2019-05-10T14:08:18.110Z,18.68
2019-05-10T14:12:26.311Z,18.83
2019-05-10T14:16:35.183Z,18.68
2019-05-10T14:20:43.584Z,18.76
2019-05-10T14:24:53.460Z,18.65
2019-05-10T14:29:01.355Z,18.55
2019-05-10T14:33:14.629Z,18.55
2019-05-10T14:37:19.718Z,18.27
2019-05-10T14:41:28.669Z,17.91
2019-05-10T14:45:36.696Z,17.85
2019-05-10T14:49:46.797Z,17.76
2019-05-10T14:53:58.143Z,17.51
2019-05-10T14:58:05.140Z,17.27
2019-05-10T15:02:16.992Z,17.29
2019-05-10T15:06:23.835Z,17.26
2019-05-10T15:10:33.129Z,17.23
2019-05-10T15:14:41.111Z,17.19
2019-05-10T15:18:49.341Z,16.95
2019-05-10T15:22:56.954Z,17.00
2019-05-10T15:27:04.965Z,16.93
2019-05-10T15:31:13.092Z,16.81
2019-05-10T15:35:22.135Z,16.82
2019-05-10T15:39:30.580Z,16.92
2019-05-10T15:43:38.878Z,17.02
2019-05-10T15:47:51.366Z,16.89
2019-05-10T15:52:15.151Z,17.04
2019-05-10T15:56:06.409Z,16.85
2019-05-10T16:00:14.652Z,16.89
2019-05-10T16:04:22.634Z,16.85
2019-05-10T16:08:31.927Z,16.71
2019-05-10T16:12:43.077Z,16.56
2019-05-10T16:16:49.645Z,16.50
2019-05-10T16:20:57.398Z,16.32
2019-05-10T16:25:07.014Z,16.15
2019-05-10T16:29:15.140Z,16.17
2019-05-10T16:33:23.212Z,16.29
2019-05-10T16:37:30.854Z,16.17
2019-05-10T16:41:39.156Z,16.22
2019-05-10T16:45:46.989Z,16.34
2019-05-10T16:49:55.203Z,16.26
2019-05-10T16:54:02.867Z,16.13
2019-05-10T16:58:15.005Z,16.08
2019-05-10T17:02:20.618Z,15.99
2019-05-10T17:06:28.975Z,15.97
2019-05-10T17:10:36.632Z,15.95
2019-05-10T17:14:44.508Z,15.80
2019-05-10T17:18:55.305Z,15.73
2019-05-10T17:23:08.719Z,15.68
2019-05-10T17:27:13.381Z,15.57
2019-05-10T17:31:21.545Z,15.30
2019-05-10T17:35:29.915Z,15.05
2019-05-10T17:39:37.703Z,14.95
2019-05-10T17:43:47.071Z,14.97
2019-05-10T17:47:54.935Z,15.07
2019-05-10T17:52:03.202Z,14.89
2019-05-10T17:56:11.578Z,14.73
2019-05-10T18:00:19.857Z,14.54
2019-05-10T18:04:28.126Z,14.30
2019-05-10T18:08:35.969Z,14.18
2019-05-10T18:12:44.001Z,14.21
2019-05-10T18:16:51.691Z,14.24
2019-05-10T18:21:01.499Z,14.14
2019-05-10T18:25:19.525Z,14.24
2019-05-10T18:29:20.368Z,14.13
2019-05-10T18:33:29.623Z,14.00
2019-05-10T18:37:37.922Z,13.93
2019-05-10T18:41:46.492Z,13.72
2019-05-10T18:45:54.859Z,13.45
2019-05-10T18:50:02.487Z,13.37
2019-05-10T18:54:10.387Z,13.42
2019-05-10T18:58:23.208Z,13.28
2019-05-10T19:02:28.666Z,13.15
2019-05-10T19:06:36.684Z,12.99
2019-05-10T19:10:44.496Z,12.96
2019-05-10T19:14:52.091Z,12.90
2019-05-10T19:19:01.983Z,12.90
2019-05-10T19:23:13.126Z,12.64
2019-05-10T19:27:19.836Z,12.69
2019-05-10T19:31:31.542Z,12.84
2019-05-10T19:35:37.905Z,12.98
2019-05-10T19:39:46.235Z,13.13
2019-05-10T19:43:56.047Z,13.26
2019-05-10T19:48:05.839Z,13.32
2019-05-10T19:52:14.124Z,13.41
2019-05-10T19:56:22.183Z,13.64
2019-05-10T20:00:30.112Z,13.54
2019-05-10T20:04:38.115Z,13.58
2019-05-10T20:08:46.643Z,13.65
2019-05-10T20:12:54.387Z,13.61
2019-05-10T20:17:02.257Z,13.67
2019-05-10T20:21:10.286Z,13.49
2019-05-10T20:25:18.191Z,13.42
2019-05-10T20:29:25.995Z,13.52
2019-05-10T20:33:33.714Z,13.49
2019-05-10T20:37:41.738Z,13.53
2019-05-10T20:41:49.842Z,13.65
2019-05-10T20:45:57.547Z,13.58
2019-05-10T20:50:07.116Z,13.49
2019-05-10T20:54:15.124Z,13.41
2019-05-10T20:58:22.801Z,13.29
2019-05-10T21:02:30.925Z,13.39
2019-05-10T21:06:38.743Z,13.48
2019-05-10T21:10:46.459Z,13.42
2019-05-10T21:14:54.359Z,13.38
2019-05-10T21:19:02.067Z,13.31
2019-05-10T21:23:09.977Z,13.20
2019-05-10T21:27:18.508Z,13.28
2019-05-10T21:31:26.341Z,13.30
2019-05-10T21:35:35.500Z,13.26
2019-05-10T21:39:43.681Z,13.17
2019-05-10T21:43:51.489Z,13.15
2019-05-10T21:47:59.633Z,13.19
2019-05-10T21:52:07.735Z,13.14
2019-05-10T21:56:15.104Z,13.25
2019-05-10T22:00:26.775Z,13.40
2019-05-10T22:04:36.909Z,13.46
2019-05-10T22:08:49.259Z,13.56
2019-05-10T22:12:54.162Z,13.51
2019-05-10T22:17:01.966Z,13.45
2019-05-10T22:21:10.276Z,13.35
2019-05-10T22:25:18.602Z,13.38
2019-05-10T22:29:26.294Z,13.44
2019-05-10T22:33:34.632Z,13.50
2019-05-10T22:37:42.729Z,13.57
2019-05-10T22:41:53.033Z,13.56
2019-05-10T22:46:01.290Z,13.63
2019-05-10T22:50:10.172Z,13.63
2019-05-10T22:54:17.977Z,13.44
2019-05-10T22:58:25.987Z,13.24
2019-05-10T23:02:34.646Z,13.15
2019-05-10T23:06:42.243Z,13.20
2019-05-10T23:10:50.445Z,13.16
2019-05-10T23:14:58.163Z,13.19
2019-05-10T23:19:06.481Z,12.98
2019-05-10T23:23:14.714Z,12.88
2019-05-10T23:27:22.820Z,12.77
2019-05-10T23:31:35.323Z,12.82
2019-05-10T23:35:41.423Z,12.86
2019-05-10T23:39:49.226Z,12.72
2019-05-10T23:43:57.467Z,12.68
2019-05-10T23:48:05.091Z,12.66
2019-05-10T23:52:13.400Z,12.67
2019-05-10T23:56:21.600Z,12.71
